METAR Data
IDs: Format: Raw Decoded Include TAF

Data at: 2259 UTC 25 Oct 2021

KLXY 252235Z AUTO 13005G14KT 10SM SCT038 31/23 A2989 RMK AO2 T03050226
KLXY 252215Z AUTO 11004KT 10SM SCT038 31/23 A2989 RMK AO2 T03080225
KLXY 252155Z AUTO 17005KT 10SM SCT036 31/23 A2990 RMK AO2 T03120225
KLXY 252135Z AUTO 14003KT 10SM CLR 31/22 A2990 RMK AO2 T03100222
KLXY 252115Z AUTO 18007KT 10SM CLR 31/22 A2990 RMK AO2 T03110222
KLXY 252055Z AUTO 14003KT 10SM CLR 31/22 A2990 RMK AO2 T03060221
KLXY 252035Z AUTO 00000KT 10SM SCT031 30/22 A2991 RMK AO2 T03030221
KLXY 252015Z AUTO 11003KT 10SM CLR 30/22 A2991 RMK AO2 T03040221
KLXY 251955Z AUTO 00000KT 10SM CLR 30/22 A2992 RMK AO2 T02960219
KLXY 251935Z AUTO 00000KT 10SM CLR 29/22 A2992 RMK AO2 T02940223
KLXY 251915Z AUTO 21004KT 10SM CLR 29/22 A2993 RMK AO2 T02910223
KLXY 251855Z AUTO 18006KT 10SM CLR 29/23 A2994 RMK AO2 T02910230
KLXY 251835Z AUTO 17006KT 10SM CLR 29/23 A2995 RMK AO2 T02850229
KLXY 251815Z AUTO 16007KT 10SM SCT010 27/23 A2996 RMK AO2 T02720225
KLXY 251755Z AUTO 16006KT 10SM BKN010 26/23 A2997 RMK AO2 60002 T02630228 10263 20189
KLXY 251735Z AUTO 15005KT 10SM BKN008 25/23 A2997 RMK AO2 T02470231
KLXY 251715Z AUTO 16003KT 10SM OVC006 24/23 A2998 RMK AO2 T02360233
KLXY 251655Z AUTO 14003KT 10SM OVC004 23/23 A2998 RMK AO2 T02320230
KLXY 251635Z AUTO 16003KT 7SM 23/23 A2998 RMK AO2 T02300227 PWINO
KLXY 251615Z AUTO 00000KT OVC002 23/23 A2998 RMK AO2 T02270225
KLXY 251515Z AUTO 19003KT 1/4SM FG OVC002 22/22 A2999 RMK AO2 T02200217
KLXY 251455Z AUTO 14003KT 1/4SM FG OVC002 22/22 A2999 RMK AO2 T02210217
KLXY 251435Z AUTO 00000KT 1/4SM FG OVC002 22/22 A2998 RMK AO2 T02180215
KLXY 251415Z AUTO 00000KT M1/4SM FG OVC002 21/21 A2998 RMK AO2 T02140210
KLXY 251355Z AUTO 00000KT M1/4SM FG OVC002 21/21 A2997 RMK AO2 T02100206
KLXY 251335Z AUTO 00000KT 1/4SM FG OVC002 20/20 A2996 RMK AO2 T02040201
KLXY 251315Z AUTO 00000KT M1/4SM FG OVC002 20/20 A2995 RMK AO2 T02010198
KLXY 251255Z AUTO 00000KT 1/2SM FG OVC002 20/19 A2995 RMK AO2 T01970194
KLXY 251235Z AUTO 00000KT 1/2SM FG VV005 19/19 A2994 RMK AO2 T01930190
KLXY 251215Z AUTO 00000KT 1 3/4SM BR VV007 19/19 A2994 RMK AO2 T01890186
KLXY 251155Z AUTO 00000KT 1/2SM FG VV005 19/19 A2994 RMK AO2 T01880185 10211 20186
KLXY 251135Z AUTO 00000KT 3/4SM BR VV005 19/19 A2994 RMK AO2 T01930190
KLXY 251115Z AUTO 00000KT 3SM BR CLR 20/19 A2993 RMK AO2 T01950192
KLXY 251055Z AUTO 00000KT 7SM CLR 20/20 A2993 RMK AO2 T01980195
KLXY 251035Z AUTO 00000KT 7SM CLR 20/20 A2992 RMK AO2 T01990196
KLXY 251015Z AUTO 00000KT 10SM CLR 20/20 A2992 RMK AO2 T01970195
KLXY 250955Z AUTO 00000KT 10SM CLR 20/19 A2991 RMK AO2 T01970194
KLXY 250935Z AUTO 00000KT 10SM CLR 20/20 A2991 RMK AO2 T02000198
KLXY 250915Z AUTO 00000KT 10SM CLR 20/20 A2991 RMK AO2 T02000197
KLXY 250855Z AUTO 00000KT 10SM CLR 20/20 A2991 RMK AO2 T01990196
KLXY 250835Z AUTO 00000KT 10SM CLR 20/20 A2991 RMK AO2 T02000196
KLXY 250815Z AUTO 00000KT 10SM CLR 20/20 A2991 RMK AO2 T02020200
KLXY 250755Z AUTO 00000KT 10SM CLR 20/20 A2991 RMK AO2 T02020199
KLXY 250735Z AUTO 00000KT 10SM CLR 20/20 A2991 RMK AO2 T02040201
KLXY 250715Z AUTO 00000KT 10SM CLR 21/21 A2991 RMK AO2 T02080205
KLXY 250655Z AUTO 32003KT 10SM CLR 21/21 A2991 RMK AO2 T02090206
KLXY 250635Z AUTO 00000KT 10SM CLR 21/21 A2989 RMK AO2 T02090206
KLXY 250615Z AUTO 00000KT 10SM CLR 21/21 A2989 RMK AO2 T02100207
KLXY 250555Z AUTO 00000KT 10SM CLR 21/21 A2989 RMK AO2 T02100207 10253 20208
KLXY 250535Z AUTO 00000KT 10SM CLR 21/20 A2988 RMK AO2 T02120204
KLXY 250515Z AUTO 00000KT 10SM CLR 21/20 A2988 RMK AO2 T02120203
KLXY 250455Z AUTO 00000KT 10SM CLR 21/20 A2988 RMK AO2 T02140200
KLXY 250435Z AUTO 00000KT 10SM CLR 22/20 A2987 RMK AO2 T02160204
KLXY 250415Z AUTO 19003KT 10SM CLR 22/20 A2987 RMK AO2 T02160197
KLXY 250355Z AUTO 20003KT 10SM CLR 22/20 A2986 RMK AO2 T02210200
KLXY 250335Z AUTO 19004KT 10SM CLR 23/20 A2985 RMK AO2 T02250200
KLXY 250315Z AUTO 18004KT 10SM CLR 23/20 A2985 RMK AO2 T02250201
KLXY 250255Z AUTO 19004KT 10SM CLR 23/20 A2985 RMK AO2 T02260200
KLXY 250235Z AUTO 19003KT 10SM CLR 23/20 A2984 RMK AO2 T02270202
KLXY 250215Z AUTO 18003KT 10SM CLR 23/20 A2984 RMK AO2 T02270201
KLXY 250155Z AUTO 00000KT 10SM CLR 23/20 A2984 RMK AO2 T02300202
KLXY 250135Z AUTO 18003KT 10SM CLR 24/20 A2984 RMK AO2 T02350203
KLXY 250115Z AUTO 17004KT 10SM CLR 24/21 A2983 RMK AO2 T02360205
KLXY 250055Z AUTO 00000KT 10SM CLR 24/20 A2983 RMK AO2 T02400202
KLXY 250035Z AUTO 18003KT 10SM CLR 24/20 A2982 RMK AO2 T02430203
KLXY 250015Z AUTO 00000KT 10SM CLR 25/20 A2981 RMK AO2 T02470204
KLXY 242355Z AUTO 19004KT 10SM CLR 25/21 A2981 RMK AO2 T02540205 10297 20254
KLXY 242335Z AUTO 19005KT 10SM CLR 26/21 A2981 RMK AO2 T02640205
KLXY 242315Z AUTO 21003KT 10SM CLR 28/21 A2981 RMK AO2 T02770205
KLXY 242255Z AUTO 19008KT 10SM CLR 28/20 A2980 RMK AO2 T02820203
KLXY 242235Z AUTO 18007KT 10SM SCT050 29/20 A2980 RMK AO2 T02850204
KLXY 242215Z AUTO 20008KT 10SM OVC050 28/20 A2981 RMK AO2 T02830200
KLXY 242155Z AUTO 21008KT 10SM SCT043 OVC050 29/20 A2981 RMK AO2 T02870202
KLXY 242135Z AUTO 21008G19KT 10SM SCT037 BKN048 BKN060 29/20 A2981 RMK AO2 T02850200
KLXY 242115Z AUTO 22012G15KT 10SM SCT037 SCT043 BKN050 30/21 A2980 RMK AO2 T02970205
KLXY 242055Z AUTO 19016G22KT 10SM OVC035 29/20 A2979 RMK AO2 T02920202
KLXY 242035Z AUTO 20008G19KT 10SM BKN035 BKN047 29/21 A2980 RMK AO2 T02940206
KLXY 242015Z AUTO 21010G22KT 10SM SCT037 BKN047 29/21 A2980 RMK AO2 T02940205
KLXY 241955Z AUTO 19010G19KT 10SM SCT032 BKN040 BKN047 28/20 A2981 RMK AO2 T02810202
KLXY 241935Z AUTO 18010G21KT 10SM SCT032 BKN037 BKN047 29/21 A2981 RMK AO2 T02880206
KLXY 241915Z AUTO 18009G19KT 10SM SCT032 BKN038 OVC045 28/20 A2982 RMK AO2 T02810202
KLXY 241855Z AUTO 20018G21KT 10SM SCT030 BKN036 OVC043 28/21 A2983 RMK AO2 T02770205
KLXY 241835Z AUTO 18010G18KT 10SM SCT028 SCT036 OVC043 28/21 A2984 RMK AO2 T02760207
KLXY 241815Z AUTO 21014G21KT 10SM SCT024 SCT030 BKN043 28/21 A2985 RMK AO2 T02770209
KLXY 241755Z AUTO 19016G23KT 10SM BKN022 BKN030 OVC043 27/21 A2986 RMK AO2 T02690208 10269 20193
KLXY 241735Z AUTO 20010G20KT 10SM SCT024 OVC043 27/21 A2987 RMK AO2 T02670210
KLXY 241715Z AUTO 20012G22KT 10SM SCT021 OVC043 27/21 A2988 RMK AO2 T02650206
KLXY 241655Z AUTO 20009G19KT 10SM BKN019 OVC043 26/21 A2989 RMK AO2 T02600206
KLXY 241635Z AUTO 18014G20KT 10SM BKN017 OVC043 25/21 A2989 RMK AO2 T02520205
KLXY 241615Z AUTO 18016G21KT 10SM SCT013 BKN043 25/21 A2989 RMK AO2 T02510207
KLXY 241555Z AUTO 18012G17KT 10SM BKN011 BKN019 BKN043 24/20 A2989 RMK AO2 T02400204
KLXY 241535Z AUTO 19011G17KT 10SM SCT009 23/20 A2989 RMK AO2 T02330203
KLXY 241515Z AUTO 19013KT 10SM SCT019 SCT025 SCT038 22/21 A2990 RMK AO2 T02190205
KLXY 241455Z AUTO 18008KT 10SM SCT007 BKN019 OVC026 21/21 A2991 RMK AO2 T02090206
KLXY 241435Z AUTO 19010G14KT 10SM SCT005 OVC019 21/20 A2991 RMK AO2 T02050202
KLXY 241415Z AUTO 18008KT 140V200 10SM BKN005 OVC019 20/20 A2990 RMK AO2 T02010199
KLXY 241355Z AUTO 20011KT 10SM BKN005 BKN009 OVC022 20/20 A2989 RMK AO2 T02000196
KLXY 241335Z AUTO 20009KT 10SM BKN003 OVC009 20/20 A2989 RMK AO2 T01970195
KLXY 241315Z AUTO 20010KT 10SM OVC003 20/19 A2988 RMK AO2 T01960193
KLXY 241255Z AUTO 19009KT 10SM OVC003 20/19 A2987 RMK AO2 T01950192
KLXY 241235Z AUTO 19010KT 10SM OVC003 20/19 A2986 RMK AO2 T01950191
KLXY 241215Z AUTO 19011G14KT 10SM OVC005 19/19 A2986 RMK AO2 T01930190
KLXY 241155Z AUTO 19010KT 10SM OVC005 20/19 A2985 RMK AO2 6//// 7//// T01950192
KLXY 241135Z AUTO 20011KT 20/19 A2985 RMK AO2 T01960193 PWINO
KLXY 241115Z AUTO 20009KT 10SM OVC005 20/19 A2985 RMK AO2 T01950191